Montreal, Canada
Current Conditions -  °F | °C
As of 9:37 PM on Tuesday 21 Oct 2014 (Local Time) from CYHU Reporting Station
Light Rain Light Rain  
Wind Chill: 36°   Ceiling: 5500
Heat Index: 43°   Visibility: 9mi
Dew Point: 39°   Wind: 13mph
Humidity: 87%   Direction: 30°NNE
Pressure: 30.15"   Gusts: NA
Location:  45.51°N, 73.55°W
Report Text: CYHU 220137Z AUTO 03011KT 9SM -RA SCT019 OVC055 06/04 A3015 RMK SLP212
Loading
Personal Weather Stations






























Interactive Weather Map New forecast layout! Learn more

10-Day Weather Forecast

Advertisements
Track Severe Weather on mobile